sensor_id;sensor_type;location;lat;lon;timestamp;temperature;humidity
21508;DHT22;10915;54.352;9.074;2022-08-21T00:02:26;15.90;99.90
21508;DHT22;10915;54.352;9.074;2022-08-21T00:04:52;16.00;99.90
21508;DHT22;10915;54.352;9.074;2022-08-21T00:07:18;16.00;99.90
21508;DHT22;10915;54.352;9.074;2022-08-21T00:09:44;16.00;99.90
21508;DHT22;10915;54.352;9.074;2022-08-21T00:12:10;16.00;99.90
21508;DHT22;10915;54.352;9.074;2022-08-21T00:14:36;16.00;99.90
21508;DHT22;10915;54.352;9.074;2022-08-21T00:17:03;16.00;99.90
21508;DHT22;10915;54.352;9.074;2022-08-21T00:19:30;16.00;99.90
21508;DHT22;10915;54.352;9.074;2022-08-21T00:21:55;16.00;99.90
21508;DHT22;10915;54.352;9.074;2022-08-21T00:24:22;15.90;99.90
21508;DHT22;10915;54.352;9.074;2022-08-21T00:26:48;15.90;99.90
21508;DHT22;10915;54.352;9.074;2022-08-21T00:29:14;15.90;99.90
21508;DHT22;10915;54.352;9.074;2022-08-21T00:31:41;15.90;99.90
21508;DHT22;10915;54.352;9.074;2022-08-21T00:34:07;15.90;99.90
21508;DHT22;10915;54.352;9.074;2022-08-21T00:36:33;15.90;99.90
21508;DHT22;10915;54.352;9.074;2022-08-21T00:38:59;15.80;99.90
21508;DHT22;10915;54.352;9.074;2022-08-21T00:41:26;15.80;99.90
21508;DHT22;10915;54.352;9.074;2022-08-21T00:43:52;15.80;99.90
21508;DHT22;10915;54.352;9.074;2022-08-21T00:46:18;15.80;99.90
21508;DHT22;10915;54.352;9.074;2022-08-21T00:48:44;15.80;99.90
21508;DHT22;10915;54.352;9.074;2022-08-21T00:51:16;15.80;99.90
21508;DHT22;10915;54.352;9.074;2022-08-21T00:53:47;15.80;99.90
21508;DHT22;10915;54.352;9.074;2022-08-21T00:56:14;15.80;99.90
21508;DHT22;10915;54.352;9.074;2022-08-21T00:58:41;15.70;99.90
21508;DHT22;10915;54.352;9.074;2022-08-21T01:01:08;15.70;99.90
21508;DHT22;10915;54.352;9.074;2022-08-21T01:03:35;15.70;99.90
21508;DHT22;10915;54.352;9.074;2022-08-21T01:06:02;15.70;99.90
21508;DHT22;10915;54.352;9.074;2022-08-21T01:08:29;15.70;99.90
21508;DHT22;10915;54.352;9.074;2022-08-21T01:10:57;15.60;99.90
21508;DHT22;10915;54.352;9.074;2022-08-21T01:13:25;15.60;99.90
21508;DHT22;10915;54.352;9.074;2022-08-21T01:15:54;15.70;99.90
21508;DHT22;10915;54.352;9.074;2022-08-21T01:18:21;15.70;99.90
21508;DHT22;10915;54.352;9.074;2022-08-21T01:23:34;15.60;99.90
21508;DHT22;10915;54.352;9.074;2022-08-21T01:26:00;15.60;99.90
21508;DHT22;10915;54.352;9.074;2022-08-21T01:28:26;15.60;99.90
21508;DHT22;10915;54.352;9.074;2022-08-21T01:30:55;15.60;99.90
21508;DHT22;10915;54.352;9.074;2022-08-21T01:33:22;15.70;99.90
21508;DHT22;10915;54.352;9.074;2022-08-21T01:35:50;15.70;99.90
21508;DHT22;10915;54.352;9.074;2022-08-21T01:38:15;15.70;99.90
21508;DHT22;10915;54.352;9.074;2022-08-21T01:40:41;15.70;99.90
21508;DHT22;10915;54.352;9.074;2022-08-21T01:43:07;15.70;99.90
21508;DHT22;10915;54.352;9.074;2022-08-21T01:45:33;15.70;99.90
21508;DHT22;10915;54.352;9.074;2022-08-21T01:47:58;15.70;99.90
21508;DHT22;10915;54.352;9.074;2022-08-21T01:50:24;15.70;99.90
21508;DHT22;10915;54.352;9.074;2022-08-21T01:52:50;15.70;99.90
21508;DHT22;10915;54.352;9.074;2022-08-21T01:55:19;15.70;99.90
21508;DHT22;10915;54.352;9.074;2022-08-21T01:57:45;15.70;99.90
21508;DHT22;10915;54.352;9.074;2022-08-21T02:00:14;15.70;99.90
21508;DHT22;10915;54.352;9.074;2022-08-21T02:02:41;15.70;99.90
21508;DHT22;10915;54.352;9.074;2022-08-21T02:05:08;15.70;99.90
21508;DHT22;10915;54.352;9.074;2022-08-21T02:07:42;15.70;99.90
21508;DHT22;10915;54.352;9.074;2022-08-21T02:10:10;15.70;99.90
21508;DHT22;10915;54.352;9.074;2022-08-21T02:12:36;15.60;99.90
21508;DHT22;10915;54.352;9.074;2022-08-21T02:15:03;15.60;99.90
21508;DHT22;10915;54.352;9.074;2022-08-21T02:17:37;15.60;99.90
21508;DHT22;10915;54.352;9.074;2022-08-21T02:20:04;15.60;99.90
21508;DHT22;10915;54.352;9.074;2022-08-21T02:22:29;15.60;99.90
21508;DHT22;10915;54.352;9.074;2022-08-21T02:24:55;15.60;99.90
21508;DHT22;10915;54.352;9.074;2022-08-21T02:27:23;15.50;99.90
21508;DHT22;10915;54.352;9.074;2022-08-21T02:29:49;15.50;99.90
21508;DHT22;10915;54.352;9.074;2022-08-21T02:32:14;15.50;99.90
21508;DHT22;10915;54.352;9.074;2022-08-21T02:34:40;15.40;99.90
21508;DHT22;10915;54.352;9.074;2022-08-21T02:37:05;15.40;99.90
21508;DHT22;10915;54.352;9.074;2022-08-21T02:39:31;15.40;99.90
21508;DHT22;10915;54.352;9.074;2022-08-21T02:41:57;15.40;99.90
21508;DHT22;10915;54.352;9.074;2022-08-21T02:44:22;15.30;99.90
21508;DHT22;10915;54.352;9.074;2022-08-21T02:46:48;15.30;99.90
21508;DHT22;10915;54.352;9.074;2022-08-21T02:49:14;15.30;99.90
21508;DHT22;10915;54.352;9.074;2022-08-21T02:51:39;15.20;99.90
21508;DHT22;10915;54.352;9.074;2022-08-21T02:54:06;15.20;99.90
21508;DHT22;10915;54.352;9.074;2022-08-21T02:56:32;15.20;99.90
21508;DHT22;10915;54.352;9.074;2022-08-21T02:58:57;15.10;99.90
21508;DHT22;10915;54.352;9.074;2022-08-21T03:01:23;15.10;99.90
21508;DHT22;10915;54.352;9.074;2022-08-21T03:03:48;15.10;99.90
21508;DHT22;10915;54.352;9.074;2022-08-21T03:06:19;15.10;99.90
21508;DHT22;10915;54.352;9.074;2022-08-21T03:08:46;15.10;99.90
21508;DHT22;10915;54.352;9.074;2022-08-21T03:11:13;15.10;99.90
21508;DHT22;10915;54.352;9.074;2022-08-21T03:13:39;15.10;99.90
21508;DHT22;10915;54.352;9.074;2022-08-21T03:16:05;15.10;99.90
21508;DHT22;10915;54.352;9.074;2022-08-21T03:18:31;15.10;99.90
21508;DHT22;10915;54.352;9.074;2022-08-21T03:20:57;15.10;99.90
21508;DHT22;10915;54.352;9.074;2022-08-21T03:23:23;15.10;99.90
21508;DHT22;10915;54.352;9.074;2022-08-21T03:25:49;15.10;99.90
21508;DHT22;10915;54.352;9.074;2022-08-21T03:28:19;15.10;99.90
21508;DHT22;10915;54.352;9.074;2022-08-21T03:30:47;15.10;99.90
21508;DHT22;10915;54.352;9.074;2022-08-21T03:33:14;15.10;99.90
21508;DHT22;10915;54.352;9.074;2022-08-21T03:35:40;15.10;99.90
21508;DHT22;10915;54.352;9.074;2022-08-21T03:38:06;15.10;99.90
21508;DHT22;10915;54.352;9.074;2022-08-21T03:40:32;15.00;99.90
21508;DHT22;10915;54.352;9.074;2022-08-21T03:42:58;15.00;99.90
21508;DHT22;10915;54.352;9.074;2022-08-21T03:45:25;15.00;99.90
21508;DHT22;10915;54.352;9.074;2022-08-21T03:47:56;15.00;99.90
21508;DHT22;10915;54.352;9.074;2022-08-21T03:50:25;15.00;99.90
21508;DHT22;10915;54.352;9.074;2022-08-21T03:52:51;14.90;99.90
21508;DHT22;10915;54.352;9.074;2022-08-21T03:55:17;15.00;99.90
21508;DHT22;10915;54.352;9.074;2022-08-21T03:57:42;14.90;99.90
21508;DHT22;10915;54.352;9.074;2022-08-21T04:00:10;14.90;99.90
21508;DHT22;10915;54.352;9.074;2022-08-21T04:02:38;14.90;99.90
21508;DHT22;10915;54.352;9.074;2022-08-21T04:05:04;14.90;99.90
21508;DHT22;10915;54.352;9.074;2022-08-21T04:07:30;14.90;99.90
21508;DHT22;10915;54.352;9.074;2022-08-21T04:09:55;14.90;99.90
21508;DHT22;10915;54.352;9.074;2022-08-21T04:12:22;14.90;99.90
21508;DHT22;10915;54.352;9.074;2022-08-21T04:14:49;14.90;99.90
21508;DHT22;10915;54.352;9.074;2022-08-21T04:17:17;14.80;99.90
21508;DHT22;10915;54.352;9.074;2022-08-21T04:19:42;14.80;99.90
21508;DHT22;10915;54.352;9.074;2022-08-21T04:22:08;14.80;99.90
21508;DHT22;10915;54.352;9.074;2022-08-21T04:24:34;14.80;99.90
21508;DHT22;10915;54.352;9.074;2022-08-21T04:27:00;14.90;99.90
21508;DHT22;10915;54.352;9.074;2022-08-21T04:29:25;14.90;99.90
21508;DHT22;10915;54.352;9.074;2022-08-21T04:31:51;14.90;99.90
21508;DHT22;10915;54.352;9.074;2022-08-21T04:34:18;14.90;99.90
21508;DHT22;10915;54.352;9.074;2022-08-21T04:36:44;15.00;99.90
21508;DHT22;10915;54.352;9.074;2022-08-21T04:39:10;15.00;99.90
21508;DHT22;10915;54.352;9.074;2022-08-21T04:41:35;15.00;99.90
21508;DHT22;10915;54.352;9.074;2022-08-21T04:44:02;15.10;99.90
21508;DHT22;10915;54.352;9.074;2022-08-21T04:46:28;15.00;99.90
21508;DHT22;10915;54.352;9.074;2022-08-21T04:48:54;15.10;99.90
21508;DHT22;10915;54.352;9.074;2022-08-21T04:51:25;15.10;99.90
21508;DHT22;10915;54.352;9.074;2022-08-21T04:54:06;15.10;99.90
21508;DHT22;10915;54.352;9.074;2022-08-21T04:56:35;15.10;99.90
21508;DHT22;10915;54.352;9.074;2022-08-21T04:59:05;15.10;99.90
21508;DHT22;10915;54.352;9.074;2022-08-21T05:01:33;15.00;99.90
21508;DHT22;10915;54.352;9.074;2022-08-21T05:04:02;15.10;99.90
21508;DHT22;10915;54.352;9.074;2022-08-21T05:06:33;15.10;99.90
21508;DHT22;10915;54.352;9.074;2022-08-21T05:08:59;15.10;99.90
21508;DHT22;10915;54.352;9.074;2022-08-21T05:11:26;15.10;99.90
21508;DHT22;10915;54.352;9.074;2022-08-21T05:13:52;15.20;99.90
21508;DHT22;10915;54.352;9.074;2022-08-21T05:16:17;15.20;99.90
21508;DHT22;10915;54.352;9.074;2022-08-21T05:18:43;15.20;99.90
21508;DHT22;10915;54.352;9.074;2022-08-21T05:21:09;15.20;99.90
21508;DHT22;10915;54.352;9.074;2022-08-21T05:23:35;15.30;99.90
21508;DHT22;10915;54.352;9.074;2022-08-21T05:26:01;15.30;99.90
21508;DHT22;10915;54.352;9.074;2022-08-21T05:28:27;15.30;99.90
21508;DHT22;10915;54.352;9.074;2022-08-21T05:30:53;15.40;99.90
21508;DHT22;10915;54.352;9.074;2022-08-21T05:33:21;15.40;99.90
21508;DHT22;10915;54.352;9.074;2022-08-21T05:35:50;15.40;99.90
21508;DHT22;10915;54.352;9.074;2022-08-21T05:38:17;15.40;99.90
21508;DHT22;10915;54.352;9.074;2022-08-21T05:40:43;15.50;99.90
21508;DHT22;10915;54.352;9.074;2022-08-21T05:43:09;15.50;99.90
21508;DHT22;10915;54.352;9.074;2022-08-21T05:45:35;15.50;99.90
21508;DHT22;10915;54.352;9.074;2022-08-21T05:48:08;15.60;99.90
21508;DHT22;10915;54.352;9.074;2022-08-21T05:50:34;15.60;99.90
21508;DHT22;10915;54.352;9.074;2022-08-21T05:53:00;15.70;99.90
21508;DHT22;10915;54.352;9.074;2022-08-21T05:55:26;15.80;99.90
21508;DHT22;10915;54.352;9.074;2022-08-21T05:57:52;15.80;99.90
21508;DHT22;10915;54.352;9.074;2022-08-21T06:00:18;15.90;99.90
21508;DHT22;10915;54.352;9.074;2022-08-21T06:02:43;16.00;99.90
21508;DHT22;10915;54.352;9.074;2022-08-21T06:05:09;16.10;99.90
21508;DHT22;10915;54.352;9.074;2022-08-21T06:07:35;16.10;99.90
21508;DHT22;10915;54.352;9.074;2022-08-21T06:10:01;16.20;99.90
21508;DHT22;10915;54.352;9.074;2022-08-21T06:12:27;16.20;99.90
21508;DHT22;10915;54.352;9.074;2022-08-21T06:14:54;16.30;99.90
21508;DHT22;10915;54.352;9.074;2022-08-21T06:17:19;16.40;99.90
21508;DHT22;10915;54.352;9.074;2022-08-21T06:19:45;16.40;99.90
21508;DHT22;10915;54.352;9.074;2022-08-21T06:22:10;16.40;99.90
21508;DHT22;10915;54.352;9.074;2022-08-21T06:24:36;16.60;99.90
21508;DHT22;10915;54.352;9.074;2022-08-21T06:27:06;16.60;99.90
21508;DHT22;10915;54.352;9.074;2022-08-21T06:29:33;16.70;99.90
21508;DHT22;10915;54.352;9.074;2022-08-21T06:31:59;16.70;99.90
21508;DHT22;10915;54.352;9.074;2022-08-21T06:34:24;16.80;99.90
21508;DHT22;10915;54.352;9.074;2022-08-21T06:36:50;16.90;99.90
21508;DHT22;10915;54.352;9.074;2022-08-21T06:39:17;16.90;99.90
21508;DHT22;10915;54.352;9.074;2022-08-21T06:41:42;17.00;99.90
21508;DHT22;10915;54.352;9.074;2022-08-21T06:44:08;17.10;99.90
21508;DHT22;10915;54.352;9.074;2022-08-21T06:46:34;17.20;99.90
21508;DHT22;10915;54.352;9.074;2022-08-21T06:48:59;17.20;99.90
21508;DHT22;10915;54.352;9.074;2022-08-21T06:51:25;17.30;99.90
21508;DHT22;10915;54.352;9.074;2022-08-21T06:53:52;17.40;99.90
21508;DHT22;10915;54.352;9.074;2022-08-21T06:56:18;17.50;99.90
21508;DHT22;10915;54.352;9.074;2022-08-21T06:58:43;17.60;99.90
21508;DHT22;10915;54.352;9.074;2022-08-21T07:01:09;17.70;99.90
21508;DHT22;10915;54.352;9.074;2022-08-21T07:03:40;17.70;99.90
21508;DHT22;10915;54.352;9.074;2022-08-21T07:06:07;17.80;99.90
21508;DHT22;10915;54.352;9.074;2022-08-21T07:08:33;17.90;99.90
21508;DHT22;10915;54.352;9.074;2022-08-21T07:11:01;18.00;99.90
21508;DHT22;10915;54.352;9.074;2022-08-21T07:13:28;18.10;99.90
21508;DHT22;10915;54.352;9.074;2022-08-21T07:15:54;18.20;99.90
21508;DHT22;10915;54.352;9.074;2022-08-21T07:18:20;18.30;99.90
21508;DHT22;10915;54.352;9.074;2022-08-21T07:23:23;18.40;99.90
21508;DHT22;10915;54.352;9.074;2022-08-21T07:25:49;18.50;99.90
21508;DHT22;10915;54.352;9.074;2022-08-21T07:28:15;18.50;99.90
21508;DHT22;10915;54.352;9.074;2022-08-21T07:30:41;18.60;99.90
21508;DHT22;10915;54.352;9.074;2022-08-21T07:33:06;18.70;99.90
21508;DHT22;10915;54.352;9.074;2022-08-21T07:35:32;18.70;99.90
21508;DHT22;10915;54.352;9.074;2022-08-21T07:37:58;18.80;99.90
21508;DHT22;10915;54.352;9.074;2022-08-21T07:40:24;18.90;99.90
21508;DHT22;10915;54.352;9.074;2022-08-21T07:42:50;19.00;99.90
21508;DHT22;10915;54.352;9.074;2022-08-21T07:45:19;19.10;99.90
21508;DHT22;10915;54.352;9.074;2022-08-21T07:47:44;19.10;99.90
21508;DHT22;10915;54.352;9.074;2022-08-21T07:50:11;19.30;99.90
21508;DHT22;10915;54.352;9.074;2022-08-21T07:52:37;19.40;99.90
21508;DHT22;10915;54.352;9.074;2022-08-21T07:55:03;19.50;99.90
21508;DHT22;10915;54.352;9.074;2022-08-21T07:57:29;19.60;99.90
21508;DHT22;10915;54.352;9.074;2022-08-21T07:59:54;19.80;99.90
21508;DHT22;10915;54.352;9.074;2022-08-21T08:02:24;19.90;99.90
21508;DHT22;10915;54.352;9.074;2022-08-21T08:04:50;20.10;99.90
21508;DHT22;10915;54.352;9.074;2022-08-21T08:07:16;20.30;99.90
21508;DHT22;10915;54.352;9.074;2022-08-21T08:09:42;20.50;99.90
21508;DHT22;10915;54.352;9.074;2022-08-21T08:12:07;20.70;99.90
21508;DHT22;10915;54.352;9.074;2022-08-21T08:14:33;20.90;99.90
21508;DHT22;10915;54.352;9.074;2022-08-21T08:16:59;21.10;99.90
21508;DHT22;10915;54.352;9.074;2022-08-21T08:19:24;21.20;99.90
21508;DHT22;10915;54.352;9.074;2022-08-21T08:21:50;21.30;99.90
21508;DHT22;10915;54.352;9.074;2022-08-21T08:24:16;21.40;99.90
21508;DHT22;10915;54.352;9.074;2022-08-21T08:26:41;21.40;99.90
21508;DHT22;10915;54.352;9.074;2022-08-21T08:29:07;21.40;99.90
21508;DHT22;10915;54.352;9.074;2022-08-21T08:31:32;21.50;99.90
21508;DHT22;10915;54.352;9.074;2022-08-21T08:33:58;21.50;99.90
21508;DHT22;10915;54.352;9.074;2022-08-21T08:36:33;21.60;99.90
21508;DHT22;10915;54.352;9.074;2022-08-21T08:38:59;21.60;99.90
21508;DHT22;10915;54.352;9.074;2022-08-21T08:41:26;21.70;99.90
21508;DHT22;10915;54.352;9.074;2022-08-21T08:43:54;21.80;99.90
21508;DHT22;10915;54.352;9.074;2022-08-21T08:46:46;21.80;99.90
21508;DHT22;10915;54.352;9.074;2022-08-21T08:49:34;21.90;99.90
21508;DHT22;10915;54.352;9.074;2022-08-21T08:52:05;21.90;99.90
21508;DHT22;10915;54.352;9.074;2022-08-21T08:54:46;21.90;99.90
21508;DHT22;10915;54.352;9.074;2022-08-21T08:57:17;21.90;99.90
21508;DHT22;10915;54.352;9.074;2022-08-21T08:59:46;22.00;99.90
21508;DHT22;10915;54.352;9.074;2022-08-21T09:02:15;22.00;99.90
21508;DHT22;10915;54.352;9.074;2022-08-21T09:04:41;22.00;99.90
21508;DHT22;10915;54.352;9.074;2022-08-21T09:07:24;22.10;99.90
21508;DHT22;10915;54.352;9.074;2022-08-21T09:10:21;22.20;99.90
21508;DHT22;10915;54.352;9.074;2022-08-21T09:15:52;22.30;99.90
21508;DHT22;10915;54.352;9.074;2022-08-21T09:21:09;22.40;99.90
21508;DHT22;10915;54.352;9.074;2022-08-21T09:24:00;22.50;99.90
21508;DHT22;10915;54.352;9.074;2022-08-21T09:26:30;23.00;99.90
21508;DHT22;10915;54.352;9.074;2022-08-21T09:28:59;23.40;99.90
21508;DHT22;10915;54.352;9.074;2022-08-21T09:31:36;24.40;99.90
21508;DHT22;10915;54.352;9.074;2022-08-21T09:34:09;25.50;99.90
21508;DHT22;10915;54.352;9.074;2022-08-21T09:36:48;26.70;99.90
21508;DHT22;10915;54.352;9.074;2022-08-21T09:39:25;27.90;99.90
21508;DHT22;10915;54.352;9.074;2022-08-21T09:42:00;28.60;99.90
21508;DHT22;10915;54.352;9.074;2022-08-21T09:44:30;29.00;99.90
21508;DHT22;10915;54.352;9.074;2022-08-21T09:46:57;28.80;99.90
21508;DHT22;10915;54.352;9.074;2022-08-21T09:49:35;28.60;99.90
21508;DHT22;10915;54.352;9.074;2022-08-21T09:52:02;28.30;99.90
21508;DHT22;10915;54.352;9.074;2022-08-21T09:54:34;27.90;99.90
21508;DHT22;10915;54.352;9.074;2022-08-21T09:59:54;27.40;99.90
21508;DHT22;10915;54.352;9.074;2022-08-21T10:02:34;27.50;99.90
21508;DHT22;10915;54.352;9.074;2022-08-21T10:05:08;27.30;99.90
21508;DHT22;10915;54.352;9.074;2022-08-21T10:07:40;27.10;99.90
21508;DHT22;10915;54.352;9.074;2022-08-21T10:10:22;27.00;99.90
21508;DHT22;10915;54.352;9.074;2022-08-21T10:18:28;26.80;99.90
21508;DHT22;10915;54.352;9.074;2022-08-21T10:21:02;26.80;99.90
21508;DHT22;10915;54.352;9.074;2022-08-21T10:26:14;26.80;99.90
21508;DHT22;10915;54.352;9.074;2022-08-21T10:29:03;26.90;99.90
21508;DHT22;10915;54.352;9.074;2022-08-21T10:31:54;26.90;99.90
21508;DHT22;10915;54.352;9.074;2022-08-21T10:34:36;26.90;99.90
21508;DHT22;10915;54.352;9.074;2022-08-21T10:37:42;27.00;99.90
21508;DHT22;10915;54.352;9.074;2022-08-21T10:40:27;27.10;99.90
21508;DHT22;10915;54.352;9.074;2022-08-21T10:48:37;27.20;99.90
21508;DHT22;10915;54.352;9.074;2022-08-21T10:51:13;27.40;99.90
21508;DHT22;10915;54.352;9.074;2022-08-21T10:56:32;27.60;99.90
21508;DHT22;10915;54.352;9.074;2022-08-21T11:01:53;27.80;99.90
21508;DHT22;10915;54.352;9.074;2022-08-21T11:07:02;27.80;99.90
21508;DHT22;10915;54.352;9.074;2022-08-21T11:09:28;27.90;99.90
21508;DHT22;10915;54.352;9.074;2022-08-21T11:12:23;27.80;99.90
21508;DHT22;10915;54.352;9.074;2022-08-21T11:17:30;27.70;99.90
21508;DHT22;10915;54.352;9.074;2022-08-21T11:20:30;27.60;99.90
21508;DHT22;10915;54.352;9.074;2022-08-21T11:23:07;27.60;99.90
21508;DHT22;10915;54.352;9.074;2022-08-21T11:25:37;27.80;99.90
21508;DHT22;10915;54.352;9.074;2022-08-21T11:28:30;27.80;99.90
21508;DHT22;10915;54.352;9.074;2022-08-21T11:33:57;27.90;99.90
21508;DHT22;10915;54.352;9.074;2022-08-21T11:36:53;27.80;99.90
21508;DHT22;10915;54.352;9.074;2022-08-21T11:44:48;27.80;99.90
21508;DHT22;10915;54.352;9.074;2022-08-21T11:49:53;27.80;99.90
21508;DHT22;10915;54.352;9.074;2022-08-21T11:52:29;27.80;99.90
21508;DHT22;10915;54.352;9.074;2022-08-21T11:57:56;28.10;99.90
21508;DHT22;10915;54.352;9.074;2022-08-21T12:00:31;28.20;99.90
21508;DHT22;10915;54.352;9.074;2022-08-21T12:03:07;28.20;99.90
21508;DHT22;10915;54.352;9.074;2022-08-21T12:05:44;28.30;99.90
21508;DHT22;10915;54.352;9.074;2022-08-21T12:08:40;28.30;99.90
21508;DHT22;10915;54.352;9.074;2022-08-21T12:16:36;28.50;99.90
21508;DHT22;10915;54.352;9.074;2022-08-21T12:21:59;28.70;99.90
21508;DHT22;10915;54.352;9.074;2022-08-21T12:24:39;28.70;99.90
21508;DHT22;10915;54.352;9.074;2022-08-21T12:27:30;28.50;99.90
21508;DHT22;10915;54.352;9.074;2022-08-21T12:30:04;28.30;99.90
21508;DHT22;10915;54.352;9.074;2022-08-21T12:32:57;28.40;99.90
21508;DHT22;10915;54.352;9.074;2022-08-21T12:35:39;28.40;99.90
21508;DHT22;10915;54.352;9.074;2022-08-21T12:38:15;28.20;99.90
21508;DHT22;10915;54.352;9.074;2022-08-21T12:40:48;27.90;99.90
21508;DHT22;10915;54.352;9.074;2022-08-21T12:43:21;27.50;99.90
21508;DHT22;10915;54.352;9.074;2022-08-21T12:45:49;27.20;99.90
21508;DHT22;10915;54.352;9.074;2022-08-21T12:51:46;27.30;99.90
21508;DHT22;10915;54.352;9.074;2022-08-21T12:54:03;27.40;99.90
21508;DHT22;10915;54.352;9.074;2022-08-21T12:56:32;27.50;99.90
21508;DHT22;10915;54.352;9.074;2022-08-21T12:59:11;27.40;99.90
21508;DHT22;10915;54.352;9.074;2022-08-21T13:01:49;27.40;99.90
21508;DHT22;10915;54.352;9.074;2022-08-21T13:04:36;27.40;99.90
21508;DHT22;10915;54.352;9.074;2022-08-21T13:07:16;27.40;99.90
21508;DHT22;10915;54.352;9.074;2022-08-21T13:10:06;27.50;99.90
21508;DHT22;10915;54.352;9.074;2022-08-21T13:12:38;27.70;99.90
21508;DHT22;10915;54.352;9.074;2022-08-21T13:15:05;27.80;99.90
21508;DHT22;10915;54.352;9.074;2022-08-21T13:17:34;27.80;99.90
21508;DHT22;10915;54.352;9.074;2022-08-21T13:20:03;27.90;99.90
21508;DHT22;10915;54.352;9.074;2022-08-21T13:22:29;27.80;99.90
21508;DHT22;10915;54.352;9.074;2022-08-21T13:24:55;27.80;99.90
21508;DHT22;10915;54.352;9.074;2022-08-21T13:27:31;27.80;99.90
21508;DHT22;10915;54.352;9.074;2022-08-21T13:32:36;27.90;99.90
21508;DHT22;10915;54.352;9.074;2022-08-21T13:35:21;28.00;99.90
21508;DHT22;10915;54.352;9.074;2022-08-21T13:37:49;27.80;99.90
21508;DHT22;10915;54.352;9.074;2022-08-21T13:40:23;27.50;99.90
21508;DHT22;10915;54.352;9.074;2022-08-21T13:42:49;27.40;99.90
21508;DHT22;10915;54.352;9.074;2022-08-21T13:45:24;27.30;99.90
21508;DHT22;10915;54.352;9.074;2022-08-21T13:47:50;27.30;99.90
21508;DHT22;10915;54.352;9.074;2022-08-21T13:50:16;27.30;99.90
21508;DHT22;10915;54.352;9.074;2022-08-21T13:55:22;27.40;99.90
21508;DHT22;10915;54.352;9.074;2022-08-21T13:57:59;27.40;99.90
21508;DHT22;10915;54.352;9.074;2022-08-21T14:00:27;27.30;99.90
21508;DHT22;10915;54.352;9.074;2022-08-21T14:03:01;27.20;99.90
21508;DHT22;10915;54.352;9.074;2022-08-21T14:05:33;27.10;99.90
21508;DHT22;10915;54.352;9.074;2022-08-21T14:10:28;27.10;99.90
21508;DHT22;10915;54.352;9.074;2022-08-21T14:12:59;27.20;99.90
21508;DHT22;10915;54.352;9.074;2022-08-21T14:15:30;27.20;99.90
21508;DHT22;10915;54.352;9.074;2022-08-21T14:18:17;27.20;99.90
21508;DHT22;10915;54.352;9.074;2022-08-21T14:20:43;27.30;99.90
21508;DHT22;10915;54.352;9.074;2022-08-21T14:23:09;27.30;99.90
21508;DHT22;10915;54.352;9.074;2022-08-21T14:25:39;27.20;99.90
21508;DHT22;10915;54.352;9.074;2022-08-21T14:28:25;27.00;99.90
21508;DHT22;10915;54.352;9.074;2022-08-21T14:30:51;26.90;99.90
21508;DHT22;10915;54.352;9.074;2022-08-21T14:33:27;26.90;99.90
21508;DHT22;10915;54.352;9.074;2022-08-21T14:35:54;26.90;99.90
21508;DHT22;10915;54.352;9.074;2022-08-21T14:38:22;26.90;99.90
21508;DHT22;10915;54.352;9.074;2022-08-21T14:40:56;26.80;99.90
21508;DHT22;10915;54.352;9.074;2022-08-21T14:43:23;26.70;99.90
21508;DHT22;10915;54.352;9.074;2022-08-21T14:45:50;26.60;99.90
21508;DHT22;10915;54.352;9.074;2022-08-21T14:48:16;26.50;99.90
21508;DHT22;10915;54.352;9.074;2022-08-21T14:50:41;26.60;99.90
21508;DHT22;10915;54.352;9.074;2022-08-21T14:53:07;26.60;99.90
21508;DHT22;10915;54.352;9.074;2022-08-21T14:55:33;26.70;99.90
21508;DHT22;10915;54.352;9.074;2022-08-21T14:58:22;26.70;99.90
21508;DHT22;10915;54.352;9.074;2022-08-21T15:00:49;26.60;99.90
21508;DHT22;10915;54.352;9.074;2022-08-21T15:03:15;26.40;99.90
21508;DHT22;10915;54.352;9.074;2022-08-21T15:05:41;26.40;99.90
21508;DHT22;10915;54.352;9.074;2022-08-21T15:08:07;26.50;99.90
21508;DHT22;10915;54.352;9.074;2022-08-21T15:10:34;26.30;99.90
21508;DHT22;10915;54.352;9.074;2022-08-21T15:13:01;26.10;99.90
21508;DHT22;10915;54.352;9.074;2022-08-21T15:15:26;25.90;99.90
21508;DHT22;10915;54.352;9.074;2022-08-21T15:17:52;25.90;99.90
21508;DHT22;10915;54.352;9.074;2022-08-21T15:20:18;25.90;99.90
21508;DHT22;10915;54.352;9.074;2022-08-21T15:22:43;25.80;99.90
21508;DHT22;10915;54.352;9.074;2022-08-21T15:25:09;25.70;99.90
21508;DHT22;10915;54.352;9.074;2022-08-21T15:27:35;25.60;99.90
21508;DHT22;10915;54.352;9.074;2022-08-21T15:30:03;25.40;99.90
21508;DHT22;10915;54.352;9.074;2022-08-21T15:32:29;25.30;99.90
21508;DHT22;10915;54.352;9.074;2022-08-21T15:34:57;25.30;99.90
21508;DHT22;10915;54.352;9.074;2022-08-21T15:37:24;25.10;99.90
21508;DHT22;10915;54.352;9.074;2022-08-21T15:39:51;25.10;99.90
21508;DHT22;10915;54.352;9.074;2022-08-21T15:42:18;25.10;99.90
21508;DHT22;10915;54.352;9.074;2022-08-21T15:44:44;25.00;99.90
21508;DHT22;10915;54.352;9.074;2022-08-21T15:47:22;25.00;99.90
21508;DHT22;10915;54.352;9.074;2022-08-21T15:49:47;24.90;99.90
21508;DHT22;10915;54.352;9.074;2022-08-21T15:52:18;25.00;99.90
21508;DHT22;10915;54.352;9.074;2022-08-21T15:54:44;24.90;99.90
21508;DHT22;10915;54.352;9.074;2022-08-21T15:57:13;24.80;99.90
21508;DHT22;10915;54.352;9.074;2022-08-21T15:59:45;24.80;99.90
21508;DHT22;10915;54.352;9.074;2022-08-21T16:02:25;24.80;99.90
21508;DHT22;10915;54.352;9.074;2022-08-21T16:04:51;24.80;99.90
21508;DHT22;10915;54.352;9.074;2022-08-21T16:07:17;24.80;99.90
21508;DHT22;10915;54.352;9.074;2022-08-21T16:09:43;24.80;99.90
21508;DHT22;10915;54.352;9.074;2022-08-21T16:12:29;24.70;99.90
21508;DHT22;10915;54.352;9.074;2022-08-21T16:15:00;24.70;99.90
21508;DHT22;10915;54.352;9.074;2022-08-21T16:17:32;24.70;99.90
21508;DHT22;10915;54.352;9.074;2022-08-21T16:20:01;24.80;99.90
21508;DHT22;10915;54.352;9.074;2022-08-21T16:22:27;24.80;99.90
21508;DHT22;10915;54.352;9.074;2022-08-21T16:24:52;24.90;99.90
21508;DHT22;10915;54.352;9.074;2022-08-21T16:27:18;25.00;99.90
21508;DHT22;10915;54.352;9.074;2022-08-21T16:29:45;25.00;99.90
21508;DHT22;10915;54.352;9.074;2022-08-21T16:32:11;25.00;99.90
21508;DHT22;10915;54.352;9.074;2022-08-21T16:34:40;25.00;99.90
21508;DHT22;10915;54.352;9.074;2022-08-21T16:37:07;24.90;99.90
21508;DHT22;10915;54.352;9.074;2022-08-21T16:39:33;24.80;99.90
21508;DHT22;10915;54.352;9.074;2022-08-21T16:41:58;24.80;99.90
21508;DHT22;10915;54.352;9.074;2022-08-21T16:44:24;24.70;99.90
21508;DHT22;10915;54.352;9.074;2022-08-21T16:46:50;24.60;99.90
21508;DHT22;10915;54.352;9.074;2022-08-21T16:49:16;24.50;99.90
21508;DHT22;10915;54.352;9.074;2022-08-21T16:51:41;24.50;99.90
21508;DHT22;10915;54.352;9.074;2022-08-21T16:54:08;24.40;99.90
21508;DHT22;10915;54.352;9.074;2022-08-21T16:56:34;24.40;99.90